Flight Track Log - Related Links

Times and Time Zones

All times are in EDT time to prevent confusion due to time zone crossing. See the CSN6443 flight status page for this flight to view local times or setup timezone preferences in your user account.

Time Position Orientation Groundspeed Altitude Reporting Facility
EDT Latitude Longitude Course Direction KTS MPH feet Rate Location/Type
07:05PM 22.6530 113.8040 241° Southwest 21 24  Level FlightAware
07:05PM 22.6530 113.8030 270° West 20 23 973 Level FlightAware
07:06PM 22.6520 113.8030 180° South 22 25 1,091 Level FlightAware
07:06PM 22.6440 113.8080 150° Southeast 135 155 1,612 Level FlightAware
07:06PM 22.6390 113.8110 151° Southeast 165 190 2,700 Level FlightAware
07:07PM 22.6160 113.8230 154° Southeast 162 186 1,800 3,200 Climbing FlightAware
07:07PM 22.6060 113.8280 155° Southeast 160 184 2,400 2,250 Climbing FlightAware
07:07PM 22.5880 113.8380 153° Southeast 167 192 3,300 1,846 Climbing FlightAware
07:08PM 22.5680 113.8490 153° Southeast 196 226 4,000 1,320 Climbing FlightAware
07:08PM 22.5460 113.8570 161° South 228 262 4,400 1,650 Climbing FlightAware
07:09PM 22.5300 113.8510 199° South 236 272 5,100 2,813 Climbing FlightAware
07:09PM 22.5190 113.8370 230° Southwest 241 277 5,900 3,000 Climbing FlightAware
07:09PM 22.5160 113.8220 258° West 247 284 6,500 2,850 Climbing FlightAware
07:09PM 22.5160 113.7870 270° West 254 292 7,800 2,667 Climbing FlightAware
07:10PM 22.5060 113.7570 250° West 253 291 8,900 2,591 Climbing FlightAware
07:10PM 22.4900 113.7410 223° Southwest 255 293 9,700 2,111 Climbing FlightAware
07:11PM 22.4540 113.7140 215° Southwest 282 325 10,800 1,390 Climbing FlightAware
07:12PM 22.4000 113.6730 215° Southwest 333 383 11,600 1,067 Climbing FlightAware
07:12PM 22.3420 113.6250 217° Southwest 376 433 12,400 973 Climbing FlightAware
07:13PM 22.2970 113.5940 213° Southwest 383 441 12,800 316 Climbing FlightAware
07:14PM 22.2280 113.5480 212° Southwest 386 444 12,800  Level FlightAware
07:14PM 22.1690 113.5030 215° Southwest 386 444 12,800 237 Level FlightAware
07:15PM 22.1130 113.4690 209° Southwest 385 443 13,100 711 Climbing FlightAware
07:16PM 22.0490 113.4330 208° Southwest 390 449 13,700 500 Climbing FlightAware
07:16PM 21.9830 113.3860 213° Southwest 379 436 13,800 77 Climbing FlightAware
07:17PM 21.9490 113.3380 233° Southwest 372 428 13,800  Level FlightAware
07:17PM 21.9080 113.2750 235° Southwest 385 443 13,800  Level FlightAware
07:18PM 21.8700 113.1940 243° Southwest 392 451 13,800 538 Level FlightAware
07:19PM 21.8450 113.1390 244° Southwest 400 460 14,500 1,063 Climbing FlightAware
07:20PM 21.8100 113.0630 244° Southwest 402 463 15,200 452 Climbing FlightAware
07:20PM 21.7770 112.9940 243° Southwest 402 463 15,200  Level FlightAware
07:21PM 21.7490 112.9360 243° Southwest 402 463 15,200  Level FlightAware
07:22PM 21.7140 112.8620 243° Southwest 402 463 15,200  Level FlightAware
07:23PM 21.6800 112.7890 243° Southwest 402 463 15,200  Level FlightAware
07:25PM 21.5746 112.6454 232° Southwest  Level Estimated
07:26PM 21.5200 112.5713 232° Southwest  Level Estimated
07:27PM 21.4653 112.4971 232° Southwest  Level Estimated
07:28PM 21.4107 112.4231 232° Southwest  Level Estimated
07:29PM 21.3560 112.3491 232° Southwest  Level Estimated
07:30PM 21.3013 112.2751 232° Southwest  Level Estimated
07:31PM 21.2465 112.2012 232° Southwest  Level Estimated
07:32PM 21.1918 112.1273 232° Southwest  Level Estimated
07:33PM 21.1370 112.0536 231° Southwest  Level Estimated
07:34PM 21.0821 111.9798 231° Southwest  Level Estimated
07:35PM 21.0272 111.9061 231° Southwest  Level Estimated
07:36PM 20.9723 111.8325 231° Southwest  Level Estimated
07:37PM 20.9174 111.7589 231° Southwest  Level Estimated
07:38PM 20.8624 111.6854 231° Southwest  Level Estimated
07:39PM 20.8074 111.6119 231° Southwest  Level Estimated
07:40PM 20.7524 111.5385 231° Southwest  Level Estimated
07:41PM 20.6973 111.4652 231° Southwest  Level Estimated
07:42PM 20.6422 111.3919 231° Southwest  Level Estimated
07:43PM 20.5871 111.3186 231° Southwest  Level Estimated
07:44PM 20.5319 111.2454 231° Southwest  Level Estimated
07:45PM 20.4767 111.1723 231° Southwest  Level Estimated
07:46PM 20.4215 111.0992 231° Southwest  Level Estimated
07:47PM 20.3662 111.0261 231° Southwest  Level Estimated
07:48PM 20.3110 110.9531 231° Southwest  Level Estimated
07:49PM 20.2557 110.8802 231° Southwest  Level Estimated
07:50PM 20.2003 110.8073 231° Southwest  Level Estimated
07:51PM 20.1450 110.7345 231° Southwest  Level Estimated
07:52PM 20.0896 110.6617 231° Southwest  Level Estimated
07:53PM 20.0341 110.5890 231° Southwest  Level Estimated
07:54PM 19.9787 110.5163 231° Southwest  Level Estimated
07:55PM 19.9349 110.4590 231° Southwest  Level Estimated
07:56PM 19.9349 110.4590 167° South  Level Estimated
07:57PM 19.9349 110.4590 167° South  Level Estimated
07:58PM 19.9349 110.4590 167° South  Level Estimated
07:59PM 19.9349 110.4590 167° South  Level Estimated
08:00PM 19.9349 110.4590 167° South  Level Estimated
08:01PM 19.9349 110.4590 167° South  Level Estimated
08:02PM 19.9349 110.4590 167° South  Level Estimated
08:03PM 19.9349 110.4590 167° South  Level Estimated
08:04PM 19.9349 110.4590 167° South  Level Estimated
08:05PM 19.9349 110.4590 167° South  Level Estimated
08:06PM 19.9349 110.4590 167° South  Level Estimated
08:07PM 19.9349 110.4590 167° South  Level Estimated
08:08PM 19.9349 110.4590 167° South  Level Estimated
08:09PM 19.9349 110.4590 167° South  Level Estimated
08:10PM 19.9349 110.4590 167° South  Level Estimated
08:11PM 19.9349 110.4590 167° South  Level Estimated

Login

Don't have an account? Register now (free) for customized features, flight alerts, and more!